Harwood, Maryland
Current Conditions -  °F | °C
As of 11:54 PM on Sunday 19 Oct 2014 (Local Time) from KNAK Reporting Station
Clear Clear  
Wind Chill: 47°   Ceiling: Unl
Heat Index: 47°   Visibility: 10mi
Dew Point: 35°   Wind: 3mph
Humidity: 63%   Direction: 260°W
Pressure: 30.12"   Gusts: NA
Location:  38.87°N, 76.62°W
Report Text: KNAK 200354Z AUTO 26003KT 10SM CLR 08/02 A3012 RMK AO2 SLP200 T00830017
Loading
Personal Weather Stations






























Interactive Weather Map
Tropical Storm Tracking
New forecast layout! Learn more

10-Day Weather Forecast

Advertisements
Track Severe Weather on mobile